sensor_id;sensor_type;location;lat;lon;timestamp;pressure;altitude;pressure_sealevel;temperature;humidity
81865;BME280;71313;43.514;1.500;2023-12-07T00:01:33;100134.78;;;5.99;60.92
81865;BME280;71313;43.514;1.500;2023-12-07T00:04:00;100136.31;;;6.04;60.40
81865;BME280;71313;43.514;1.500;2023-12-07T00:06:25;100132.56;;;6.08;60.54
81865;BME280;71313;43.514;1.500;2023-12-07T00:08:51;100118.19;;;6.12;60.61
81865;BME280;71313;43.514;1.500;2023-12-07T00:11:17;100109.09;;;6.16;59.64
81865;BME280;71313;43.514;1.500;2023-12-07T00:13:42;100110.69;;;6.21;60.16
81865;BME280;71313;43.514;1.500;2023-12-07T00:16:07;100106.78;;;5.90;60.87
81865;BME280;71313;43.514;1.500;2023-12-07T00:18:35;100111.84;;;5.76;61.19
81865;BME280;71313;43.514;1.500;2023-12-07T00:21:01;100113.06;;;5.69;61.34
81865;BME280;71313;43.514;1.500;2023-12-07T00:23:26;100121.97;;;5.68;61.83
81865;BME280;71313;43.514;1.500;2023-12-07T00:25:53;100125.84;;;5.61;61.80
81865;BME280;71313;43.514;1.500;2023-12-07T00:28:18;100119.06;;;5.53;61.92
81865;BME280;71313;43.514;1.500;2023-12-07T00:30:44;100115.16;;;5.42;61.99
81865;BME280;71313;43.514;1.500;2023-12-07T00:33:09;100117.06;;;5.59;62.41
81865;BME280;71313;43.514;1.500;2023-12-07T00:35:35;100114.72;;;5.71;61.10
81865;BME280;71313;43.514;1.500;2023-12-07T00:38:01;100115.97;;;5.83;61.24
81865;BME280;71313;43.514;1.500;2023-12-07T00:40:26;100114.38;;;5.79;61.33
81865;BME280;71313;43.514;1.500;2023-12-07T00:42:51;100110.41;;;5.69;61.09
81865;BME280;71313;43.514;1.500;2023-12-07T00:45:17;100107.25;;;5.40;62.33
81865;BME280;71313;43.514;1.500;2023-12-07T00:47:43;100111.22;;;5.30;62.73
81865;BME280;71313;43.514;1.500;2023-12-07T00:50:11;100113.53;;;5.19;62.63
81865;BME280;71313;43.514;1.500;2023-12-07T00:52:37;100126.41;;;5.08;63.58
81865;BME280;71313;43.514;1.500;2023-12-07T00:55:02;100134.81;;;5.19;62.93
81865;BME280;71313;43.514;1.500;2023-12-07T00:57:28;100135.78;;;5.37;62.11
81865;BME280;71313;43.514;1.500;2023-12-07T00:59:55;100140.50;;;5.50;62.40
81865;BME280;71313;43.514;1.500;2023-12-07T01:02:21;100137.50;;;5.58;62.05
81865;BME280;71313;43.514;1.500;2023-12-07T01:04:46;100138.75;;;5.49;62.02
81865;BME280;71313;43.514;1.500;2023-12-07T01:07:12;100146.09;;;5.44;61.83
81865;BME280;71313;43.514;1.500;2023-12-07T01:09:38;100142.16;;;5.33;62.69
81865;BME280;71313;43.514;1.500;2023-12-07T01:12:07;100145.28;;;5.22;62.89
81865;BME280;71313;43.514;1.500;2023-12-07T01:14:32;100150.97;;;5.14;62.99
81865;BME280;71313;43.514;1.500;2023-12-07T01:16:58;100147.94;;;5.02;63.44
81865;BME280;71313;43.514;1.500;2023-12-07T01:19:23;100146.47;;;4.95;62.99
81865;BME280;71313;43.514;1.500;2023-12-07T01:21:50;100148.59;;;4.86;63.91
81865;BME280;71313;43.514;1.500;2023-12-07T01:24:15;100145.94;;;4.86;63.74
81865;BME280;71313;43.514;1.500;2023-12-07T01:26:41;100148.09;;;4.77;64.04
81865;BME280;71313;43.514;1.500;2023-12-07T01:29:07;100145.50;;;4.75;63.91
81865;BME280;71313;43.514;1.500;2023-12-07T01:31:32;100139.31;;;4.75;63.98
81865;BME280;71313;43.514;1.500;2023-12-07T01:33:57;100144.56;;;4.76;64.22
81865;BME280;71313;43.514;1.500;2023-12-07T01:36:23;100145.56;;;4.74;63.80
81865;BME280;71313;43.514;1.500;2023-12-07T01:38:48;100153.72;;;4.69;64.14
81865;BME280;71313;43.514;1.500;2023-12-07T01:41:13;100153.72;;;4.69;64.13
81865;BME280;71313;43.514;1.500;2023-12-07T01:43:47;100152.28;;;4.82;63.32
81865;BME280;71313;43.514;1.500;2023-12-07T01:46:13;100140.06;;;4.78;63.78
81865;BME280;71313;43.514;1.500;2023-12-07T01:48:39;100145.69;;;4.71;64.03
81865;BME280;71313;43.514;1.500;2023-12-07T01:51:05;100134.44;;;4.64;64.07
81865;BME280;71313;43.514;1.500;2023-12-07T01:53:32;100123.25;;;4.78;63.73
81865;BME280;71313;43.514;1.500;2023-12-07T01:55:58;100122.47;;;4.96;62.82
81865;BME280;71313;43.514;1.500;2023-12-07T01:58:24;100128.16;;;5.09;63.00
81865;BME280;71313;43.514;1.500;2023-12-07T02:00:49;100135.13;;;5.11;62.33
81865;BME280;71313;43.514;1.500;2023-12-07T02:03:15;100118.28;;;4.91;62.80
81865;BME280;71313;43.514;1.500;2023-12-07T02:05:43;100134.63;;;4.81;62.58
81865;BME280;71313;43.514;1.500;2023-12-07T02:08:11;100130.41;;;4.76;63.54
81865;BME280;71313;43.514;1.500;2023-12-07T02:10:36;100120.34;;;4.62;63.61
81865;BME280;71313;43.514;1.500;2023-12-07T02:13:02;100122.06;;;4.63;63.71
81865;BME280;71313;43.514;1.500;2023-12-07T02:15:28;100119.53;;;4.60;63.67
81865;BME280;71313;43.514;1.500;2023-12-07T02:20:57;100120.91;;;4.70;63.34
81865;BME280;71313;43.514;1.500;2023-12-07T02:23:25;100120.91;;;4.70;63.47
81865;BME280;71313;43.514;1.500;2023-12-07T02:25:54;100124.50;;;4.69;63.36
81865;BME280;71313;43.514;1.500;2023-12-07T02:28:20;100128.88;;;4.70;62.95
81865;BME280;71313;43.514;1.500;2023-12-07T02:30:46;100135.00;;;4.72;63.63
81865;BME280;71313;43.514;1.500;2023-12-07T02:33:11;100129.19;;;4.84;62.92
81865;BME280;71313;43.514;1.500;2023-12-07T02:35:38;100126.00;;;4.97;62.01
81865;BME280;71313;43.514;1.500;2023-12-07T02:38:06;100131.72;;;5.08;62.09
81865;BME280;71313;43.514;1.500;2023-12-07T02:40:31;100136.66;;;5.17;61.46
81865;BME280;71313;43.514;1.500;2023-12-07T02:42:57;100132.78;;;5.24;60.84
81865;BME280;71313;43.514;1.500;2023-12-07T02:45:24;100132.59;;;5.29;61.25
81865;BME280;71313;43.514;1.500;2023-12-07T02:47:50;100121.06;;;5.28;60.97
81865;BME280;71313;43.514;1.500;2023-12-07T02:50:16;100129.78;;;5.32;60.95
81865;BME280;71313;43.514;1.500;2023-12-07T02:52:41;100120.94;;;5.31;60.89
81865;BME280;71313;43.514;1.500;2023-12-07T02:55:07;100115.63;;;5.31;60.51
81865;BME280;71313;43.514;1.500;2023-12-07T02:57:33;100111.97;;;5.34;60.88
81865;BME280;71313;43.514;1.500;2023-12-07T03:00:02;100102.97;;;5.36;60.86
81865;BME280;71313;43.514;1.500;2023-12-07T03:02:33;100090.63;;;5.35;60.68
81865;BME280;71313;43.514;1.500;2023-12-07T03:04:59;100087.09;;;5.35;60.50
81865;BME280;71313;43.514;1.500;2023-12-07T03:07:24;100081.97;;;5.30;60.96
81865;BME280;71313;43.514;1.500;2023-12-07T03:09:50;100077.44;;;5.32;60.18
81865;BME280;71313;43.514;1.500;2023-12-07T03:12:16;100077.31;;;5.35;60.17
81865;BME280;71313;43.514;1.500;2023-12-07T03:14:41;100080.69;;;5.39;60.22
81865;BME280;71313;43.514;1.500;2023-12-07T03:17:08;100066.53;;;5.38;60.70
81865;BME280;71313;43.514;1.500;2023-12-07T03:19:37;100064.66;;;5.40;59.96
81865;BME280;71313;43.514;1.500;2023-12-07T03:22:03;100071.84;;;5.38;60.51
81865;BME280;71313;43.514;1.500;2023-12-07T03:24:29;100078.09;;;5.18;60.81
81865;BME280;71313;43.514;1.500;2023-12-07T03:26:54;100064.84;;;4.97;61.19
81865;BME280;71313;43.514;1.500;2023-12-07T03:29:20;100062.66;;;4.86;61.52
81865;BME280;71313;43.514;1.500;2023-12-07T03:31:45;100053.69;;;4.88;62.23
81865;BME280;71313;43.514;1.500;2023-12-07T03:34:11;100053.94;;;4.82;61.99
81865;BME280;71313;43.514;1.500;2023-12-07T03:36:37;100049.69;;;4.78;62.54
81865;BME280;71313;43.514;1.500;2023-12-07T03:39:04;100062.44;;;4.70;62.09
81865;BME280;71313;43.514;1.500;2023-12-07T03:41:30;100064.78;;;4.78;62.58
81865;BME280;71313;43.514;1.500;2023-12-07T03:43:56;100068.56;;;4.93;62.23
81865;BME280;71313;43.514;1.500;2023-12-07T03:46:22;100067.50;;;4.97;61.92
81865;BME280;71313;43.514;1.500;2023-12-07T03:48:47;100072.50;;;5.04;61.89
81865;BME280;71313;43.514;1.500;2023-12-07T03:51:13;100074.81;;;5.12;61.58
81865;BME280;71313;43.514;1.500;2023-12-07T03:53:42;100067.19;;;5.04;62.02
81865;BME280;71313;43.514;1.500;2023-12-07T03:56:07;100064.31;;;5.09;61.59
81865;BME280;71313;43.514;1.500;2023-12-07T03:58:33;100054.56;;;5.09;61.66
81865;BME280;71313;43.514;1.500;2023-12-07T04:00:59;100057.28;;;5.08;62.23
81865;BME280;71313;43.514;1.500;2023-12-07T04:03:25;100052.88;;;4.86;62.30
81865;BME280;71313;43.514;1.500;2023-12-07T04:05:50;100055.13;;;4.75;62.57
81865;BME280;71313;43.514;1.500;2023-12-07T04:08:16;100052.41;;;4.77;62.87
81865;BME280;71313;43.514;1.500;2023-12-07T04:10:41;100063.09;;;4.75;62.80
81865;BME280;71313;43.514;1.500;2023-12-07T04:13:08;100067.38;;;4.79;62.70
81865;BME280;71313;43.514;1.500;2023-12-07T04:15:34;100072.81;;;4.76;62.97
81865;BME280;71313;43.514;1.500;2023-12-07T04:17:59;100066.19;;;4.86;62.42
81865;BME280;71313;43.514;1.500;2023-12-07T04:20:25;100053.16;;;5.01;62.14
81865;BME280;71313;43.514;1.500;2023-12-07T04:22:50;100054.94;;;5.00;62.18
81865;BME280;71313;43.514;1.500;2023-12-07T04:25:16;100058.22;;;5.07;61.91
81865;BME280;71313;43.514;1.500;2023-12-07T04:27:41;100057.94;;;5.13;62.73
81865;BME280;71313;43.514;1.500;2023-12-07T04:30:07;100060.34;;;5.19;62.33
81865;BME280;71313;43.514;1.500;2023-12-07T04:32:32;100058.53;;;5.19;61.41
81865;BME280;71313;43.514;1.500;2023-12-07T04:34:58;100049.69;;;5.19;62.21
81865;BME280;71313;43.514;1.500;2023-12-07T04:37:23;100061.19;;;4.99;62.67
81865;BME280;71313;43.514;1.500;2023-12-07T04:39:48;100055.41;;;4.89;63.12
81865;BME280;71313;43.514;1.500;2023-12-07T04:42:14;100061.91;;;4.82;63.07
81865;BME280;71313;43.514;1.500;2023-12-07T04:44:39;100058.72;;;4.74;63.50
81865;BME280;71313;43.514;1.500;2023-12-07T04:47:05;100055.88;;;4.79;63.44
81865;BME280;71313;43.514;1.500;2023-12-07T04:49:30;100058.84;;;4.71;63.55
81865;BME280;71313;43.514;1.500;2023-12-07T04:51:56;100055.31;;;4.71;63.60
81865;BME280;71313;43.514;1.500;2023-12-07T04:54:21;100056.06;;;4.74;63.47
81865;BME280;71313;43.514;1.500;2023-12-07T04:56:46;100048.50;;;4.85;63.20
81865;BME280;71313;43.514;1.500;2023-12-07T04:59:12;100054.34;;;4.94;62.82
81865;BME280;71313;43.514;1.500;2023-12-07T05:01:38;100053.09;;;5.02;62.73
81865;BME280;71313;43.514;1.500;2023-12-07T05:04:04;100046.66;;;5.08;62.83
81865;BME280;71313;43.514;1.500;2023-12-07T05:06:32;100036.72;;;5.11;62.29
81865;BME280;71313;43.514;1.500;2023-12-07T05:09:00;100039.19;;;5.16;62.41
81865;BME280;71313;43.514;1.500;2023-12-07T05:11:26;100029.97;;;5.23;62.38
81865;BME280;71313;43.514;1.500;2023-12-07T05:13:51;100021.78;;;5.28;61.87
81865;BME280;71313;43.514;1.500;2023-12-07T05:16:17;100031.16;;;5.36;62.03
81865;BME280;71313;43.514;1.500;2023-12-07T05:18:43;100027.56;;;5.37;61.40
81865;BME280;71313;43.514;1.500;2023-12-07T05:21:09;100024.75;;;5.40;61.61
81865;BME280;71313;43.514;1.500;2023-12-07T05:23:34;100014.91;;;5.42;61.37
81865;BME280;71313;43.514;1.500;2023-12-07T05:26:00;100017.38;;;5.47;61.79
81865;BME280;71313;43.514;1.500;2023-12-07T05:28:26;100014.78;;;5.45;61.53
81865;BME280;71313;43.514;1.500;2023-12-07T05:30:52;100001.63;;;5.42;61.01
81865;BME280;71313;43.514;1.500;2023-12-07T05:33:21;99992.03;;;5.38;61.66
81865;BME280;71313;43.514;1.500;2023-12-07T05:35:46;99995.50;;;5.40;61.34
81865;BME280;71313;43.514;1.500;2023-12-07T05:38:12;99992.56;;;5.46;60.79
81865;BME280;71313;43.514;1.500;2023-12-07T05:40:37;99983.00;;;5.42;61.63
81865;BME280;71313;43.514;1.500;2023-12-07T05:43:02;99976.09;;;5.38;61.76
81865;BME280;71313;43.514;1.500;2023-12-07T05:45:29;99969.47;;;5.28;61.53
81865;BME280;71313;43.514;1.500;2023-12-07T05:47:54;99972.63;;;5.36;61.61
81865;BME280;71313;43.514;1.500;2023-12-07T05:50:19;99973.56;;;5.35;61.47
81865;BME280;71313;43.514;1.500;2023-12-07T05:52:45;99973.69;;;5.32;62.06
81865;BME280;71313;43.514;1.500;2023-12-07T05:55:11;99957.66;;;5.34;61.63
81865;BME280;71313;43.514;1.500;2023-12-07T05:57:37;99973.63;;;5.34;61.64
81865;BME280;71313;43.514;1.500;2023-12-07T06:00:02;99969.03;;;5.37;61.81
81865;BME280;71313;43.514;1.500;2023-12-07T06:02:28;99969.03;;;5.37;61.42
81865;BME280;71313;43.514;1.500;2023-12-07T06:04:54;99970.34;;;5.47;62.09
81865;BME280;71313;43.514;1.500;2023-12-07T06:07:20;99969.41;;;5.48;61.89
81865;BME280;71313;43.514;1.500;2023-12-07T06:09:47;99970.19;;;5.50;61.75
81865;BME280;71313;43.514;1.500;2023-12-07T06:12:13;99978.09;;;5.52;61.25
81865;BME280;71313;43.514;1.500;2023-12-07T06:14:38;99979.91;;;5.51;61.52
81865;BME280;71313;43.514;1.500;2023-12-07T06:17:03;99975.38;;;5.53;61.47
81865;BME280;71313;43.514;1.500;2023-12-07T06:19:29;99979.25;;;5.46;62.32
81865;BME280;71313;43.514;1.500;2023-12-07T06:21:55;99983.63;;;5.47;61.78
81865;BME280;71313;43.514;1.500;2023-12-07T06:24:20;99970.19;;;5.50;62.16
81865;BME280;71313;43.514;1.500;2023-12-07T06:26:50;99965.72;;;5.51;61.51
81865;BME280;71313;43.514;1.500;2023-12-07T06:29:15;99970.56;;;5.43;61.99
81865;BME280;71313;43.514;1.500;2023-12-07T06:31:44;99968.16;;;5.37;62.42
81865;BME280;71313;43.514;1.500;2023-12-07T06:34:10;99963.84;;;5.34;62.85
81865;BME280;71313;43.514;1.500;2023-12-07T06:36:35;99973.56;;;5.35;62.73
81865;BME280;71313;43.514;1.500;2023-12-07T06:39:02;99969.41;;;5.48;62.73
81865;BME280;71313;43.514;1.500;2023-12-07T06:41:28;99955.03;;;5.52;62.28
81865;BME280;71313;43.514;1.500;2023-12-07T06:43:53;99956.38;;;5.61;61.98
81865;BME280;71313;43.514;1.500;2023-12-07T06:46:19;99945.59;;;5.64;61.68
81865;BME280;71313;43.514;1.500;2023-12-07T06:48:47;99939.41;;;5.64;62.31
81865;BME280;71313;43.514;1.500;2023-12-07T06:51:13;99938.41;;;5.66;62.15
81865;BME280;71313;43.514;1.500;2023-12-07T06:53:39;99950.19;;;5.61;62.37
81865;BME280;71313;43.514;1.500;2023-12-07T06:56:07;99951.91;;;5.62;62.27
81865;BME280;71313;43.514;1.500;2023-12-07T06:58:33;99958.97;;;5.63;62.65
81865;BME280;71313;43.514;1.500;2023-12-07T07:00:58;99959.69;;;5.66;62.54
81865;BME280;71313;43.514;1.500;2023-12-07T07:03:24;99961.19;;;5.72;62.13
81865;BME280;71313;43.514;1.500;2023-12-07T07:05:50;99953.06;;;5.75;61.93
81865;BME280;71313;43.514;1.500;2023-12-07T07:08:15;99945.88;;;5.77;61.59
81865;BME280;71313;43.514;1.500;2023-12-07T07:10:41;99945.88;;;5.77;61.80
81865;BME280;71313;43.514;1.500;2023-12-07T07:13:06;99958.69;;;5.69;62.35
81865;BME280;71313;43.514;1.500;2023-12-07T07:15:32;99960.56;;;5.67;62.59
81865;BME280;71313;43.514;1.500;2023-12-07T07:17:57;99949.03;;;5.66;62.59
81865;BME280;71313;43.514;1.500;2023-12-07T07:20:23;99944.59;;;5.67;62.55
81865;BME280;71313;43.514;1.500;2023-12-07T07:22:48;99952.56;;;5.67;62.41
81865;BME280;71313;43.514;1.500;2023-12-07T07:25:14;99953.50;;;5.66;63.02
81865;BME280;71313;43.514;1.500;2023-12-07T07:27:44;99959.63;;;5.68;62.97
81865;BME280;71313;43.514;1.500;2023-12-07T07:30:10;99957.59;;;5.73;63.29
81865;BME280;71313;43.514;1.500;2023-12-07T07:32:35;99952.78;;;5.81;62.95
81865;BME280;71313;43.514;1.500;2023-12-07T07:35:01;99959.75;;;5.83;63.17
81865;BME280;71313;43.514;1.500;2023-12-07T07:37:26;99961.53;;;5.83;63.21
81865;BME280;71313;43.514;1.500;2023-12-07T07:39:52;99956.00;;;5.87;63.58
81865;BME280;71313;43.514;1.500;2023-12-07T07:42:17;99947.97;;;5.89;63.69
81865;BME280;71313;43.514;1.500;2023-12-07T07:44:43;99944.06;;;5.96;63.16
81865;BME280;71313;43.514;1.500;2023-12-07T07:47:08;99941.09;;;6.02;63.46
81865;BME280;71313;43.514;1.500;2023-12-07T07:49:33;99938.16;;;6.08;62.83
81865;BME280;71313;43.514;1.500;2023-12-07T07:52:00;99946.13;;;6.08;64.02
81865;BME280;71313;43.514;1.500;2023-12-07T07:54:26;99940.50;;;6.14;63.19
81865;BME280;71313;43.514;1.500;2023-12-07T07:56:52;99940.50;;;6.14;63.66
81865;BME280;71313;43.514;1.500;2023-12-07T07:59:18;99933.16;;;6.19;63.52
81865;BME280;71313;43.514;1.500;2023-12-07T08:01:47;99940.69;;;6.29;63.26
81865;BME280;71313;43.514;1.500;2023-12-07T08:04:13;99945.63;;;6.36;64.10
81865;BME280;71313;43.514;1.500;2023-12-07T08:06:39;99945.38;;;6.41;63.56
81865;BME280;71313;43.514;1.500;2023-12-07T08:09:04;99941.47;;;6.48;63.64
81865;BME280;71313;43.514;1.500;2023-12-07T08:11:30;99943.66;;;6.57;63.51
81865;BME280;71313;43.514;1.500;2023-12-07T08:14:00;99939.75;;;6.64;63.49
81865;BME280;71313;43.514;1.500;2023-12-07T08:16:25;99934.88;;;6.72;63.34
81865;BME280;71313;43.514;1.500;2023-12-07T08:18:53;99933.59;;;6.79;62.87
81865;BME280;71313;43.514;1.500;2023-12-07T08:21:22;99922.47;;;6.89;62.62
81865;BME280;71313;43.514;1.500;2023-12-07T08:23:47;99922.06;;;6.96;63.06
81865;BME280;71313;43.514;1.500;2023-12-07T08:26:14;99914.41;;;7.06;63.14
81865;BME280;71313;43.514;1.500;2023-12-07T08:28:42;99908.41;;;7.18;63.51
81865;BME280;71313;43.514;1.500;2023-12-07T08:31:07;99902.59;;;7.27;62.94
81865;BME280;71313;43.514;1.500;2023-12-07T08:33:33;99900.19;;;7.38;63.78
81865;BME280;71313;43.514;1.500;2023-12-07T08:36:05;99897.78;;;7.49;63.59
81865;BME280;71313;43.514;1.500;2023-12-07T08:38:31;99895.53;;;7.58;63.84
81865;BME280;71313;43.514;1.500;2023-12-07T08:40:57;99890.03;;;7.61;64.21
81865;BME280;71313;43.514;1.500;2023-12-07T08:43:23;99886.06;;;7.68;64.65
81865;BME280;71313;43.514;1.500;2023-12-07T08:45:52;99884.84;;;7.73;64.75
81865;BME280;71313;43.514;1.500;2023-12-07T08:48:19;99882.56;;;7.81;65.12
81865;BME280;71313;43.514;1.500;2023-12-07T08:50:45;99881.19;;;7.90;65.30
81865;BME280;71313;43.514;1.500;2023-12-07T08:53:11;99877.78;;;8.02;65.55
81865;BME280;71313;43.514;1.500;2023-12-07T08:55:36;99883.00;;;8.20;65.15
81865;BME280;71313;43.514;1.500;2023-12-07T08:58:03;99874.88;;;8.37;65.33
81865;BME280;71313;43.514;1.500;2023-12-07T09:00:31;99881.16;;;8.66;65.05
81865;BME280;71313;43.514;1.500;2023-12-07T09:02:56;99869.81;;;8.91;64.67
81865;BME280;71313;43.514;1.500;2023-12-07T09:05:22;99868.25;;;9.15;64.56
81865;BME280;71313;43.514;1.500;2023-12-07T09:07:49;99871.66;;;9.46;64.24
81865;BME280;71313;43.514;1.500;2023-12-07T09:10:14;99871.00;;;9.83;63.13
81865;BME280;71313;43.514;1.500;2023-12-07T09:12:40;99851.97;;;10.27;62.74
81865;BME280;71313;43.514;1.500;2023-12-07T09:15:06;99860.03;;;10.65;61.96
81865;BME280;71313;43.514;1.500;2023-12-07T09:17:37;99866.25;;;11.04;60.97
81865;BME280;71313;43.514;1.500;2023-12-07T09:20:10;99861.16;;;11.37;60.31
81865;BME280;71313;43.514;1.500;2023-12-07T09:22:43;99852.34;;;11.72;59.76
81865;BME280;71313;43.514;1.500;2023-12-07T09:25:10;99848.59;;;11.98;58.89
81865;BME280;71313;43.514;1.500;2023-12-07T09:27:37;99848.41;;;12.13;59.01
81865;BME280;71313;43.514;1.500;2023-12-07T09:32:30;99847.81;;;12.55;57.62
81865;BME280;71313;43.514;1.500;2023-12-07T09:34:55;99847.88;;;13.00;56.58
81865;BME280;71313;43.514;1.500;2023-12-07T09:37:21;99833.59;;;13.65;55.84
81865;BME280;71313;43.514;1.500;2023-12-07T09:39:47;99821.13;;;14.28;54.39
81865;BME280;71313;43.514;1.500;2023-12-07T09:42:12;99823.00;;;14.48;51.84
81865;BME280;71313;43.514;1.500;2023-12-07T09:44:38;99812.47;;;14.45;52.07
81865;BME280;71313;43.514;1.500;2023-12-07T09:47:05;99811.00;;;14.83;51.62
81865;BME280;71313;43.514;1.500;2023-12-07T09:49:31;99812.41;;;15.17;50.17
81865;BME280;71313;43.514;1.500;2023-12-07T09:51:58;99820.50;;;15.48;49.74
81865;BME280;71313;43.514;1.500;2023-12-07T09:54:24;99810.94;;;15.44;48.53
81865;BME280;71313;43.514;1.500;2023-12-07T09:56:51;99815.91;;;15.39;49.47
81865;BME280;71313;43.514;1.500;2023-12-07T09:59:19;99823.47;;;15.45;49.01
81865;BME280;71313;43.514;1.500;2023-12-07T10:01:45;99814.75;;;15.32;49.13
81865;BME280;71313;43.514;1.500;2023-12-07T10:04:20;99808.94;;;15.36;48.93
81865;BME280;71313;43.514;1.500;2023-12-07T10:06:47;99808.13;;;15.55;49.31
81865;BME280;71313;43.514;1.500;2023-12-07T10:09:14;99795.06;;;15.60;48.54
81865;BME280;71313;43.514;1.500;2023-12-07T10:11:40;99788.97;;;15.87;47.71
81865;BME280;71313;43.514;1.500;2023-12-07T10:14:07;99775.69;;;16.22;47.97
81865;BME280;71313;43.514;1.500;2023-12-07T10:16:36;99783.47;;;16.64;47.31
81865;BME280;71313;43.514;1.500;2023-12-07T10:19:29;99764.34;;;17.12;45.52
81865;BME280;71313;43.514;1.500;2023-12-07T10:21:54;99771.94;;;17.36;45.28
81865;BME280;71313;43.514;1.500;2023-12-07T10:24:21;99766.22;;;17.57;45.03
81865;BME280;71313;43.514;1.500;2023-12-07T10:26:48;99769.78;;;17.67;43.61
81865;BME280;71313;43.514;1.500;2023-12-07T10:29:19;99775.97;;;17.77;44.54
81865;BME280;71313;43.514;1.500;2023-12-07T10:31:45;99761.28;;;18.24;44.14
81865;BME280;71313;43.514;1.500;2023-12-07T10:34:12;99757.53;;;18.94;42.45
81865;BME280;71313;43.514;1.500;2023-12-07T10:36:38;99755.78;;;19.61;42.49
81865;BME280;71313;43.514;1.500;2023-12-07T10:39:03;99760.59;;;19.92;41.07
81865;BME280;71313;43.514;1.500;2023-12-07T10:41:33;99742.16;;;19.61;39.63
81865;BME280;71313;43.514;1.500;2023-12-07T10:44:01;99743.06;;;19.28;39.71
81865;BME280;71313;43.514;1.500;2023-12-07T10:46:29;99731.47;;;18.84;40.28
81865;BME280;71313;43.514;1.500;2023-12-07T10:49:00;99726.81;;;18.68;41.58
81865;BME280;71313;43.514;1.500;2023-12-07T10:53:52;99706.44;;;18.72;40.23
81865;BME280;71313;43.514;1.500;2023-12-07T10:56:42;99698.75;;;19.01;40.43
81865;BME280;71313;43.514;1.500;2023-12-07T10:59:12;99688.91;;;19.59;40.49
81865;BME280;71313;43.514;1.500;2023-12-07T11:01:38;99683.50;;;19.75;39.25
81865;BME280;71313;43.514;1.500;2023-12-07T11:04:05;99684.19;;;19.85;38.91
81865;BME280;71313;43.514;1.500;2023-12-07T11:06:33;99674.66;;;19.81;37.59
81865;BME280;71313;43.514;1.500;2023-12-07T11:09:03;99667.66;;;19.70;38.15
81865;BME280;71313;43.514;1.500;2023-12-07T11:11:41;99662.72;;;20.15;38.47
81865;BME280;71313;43.514;1.500;2023-12-07T11:14:09;99657.34;;;20.70;38.63
81865;BME280;71313;43.514;1.500;2023-12-07T11:16:41;99644.88;;;20.76;37.47
81865;BME280;71313;43.514;1.500;2023-12-07T11:21:55;99639.38;;;20.20;38.43
81865;BME280;71313;43.514;1.500;2023-12-07T11:24:23;99635.34;;;19.75;39.09
81865;BME280;71313;43.514;1.500;2023-12-07T11:26:49;99628.81;;;19.36;38.70
81865;BME280;71313;43.514;1.500;2023-12-07T11:29:14;99626.91;;;19.12;39.83
81865;BME280;71313;43.514;1.500;2023-12-07T11:31:39;99627.72;;;19.04;40.36
81865;BME280;71313;43.514;1.500;2023-12-07T11:34:06;99612.56;;;18.94;40.88
81865;BME280;71313;43.514;1.500;2023-12-07T11:36:33;99603.38;;;18.53;41.20
81865;BME280;71313;43.514;1.500;2023-12-07T11:41:29;99606.19;;;17.22;42.63
81865;BME280;71313;43.514;1.500;2023-12-07T11:43:58;99610.97;;;16.92;43.45
81865;BME280;71313;43.514;1.500;2023-12-07T11:46:24;99605.13;;;16.60;44.11
81865;BME280;71313;43.514;1.500;2023-12-07T11:48:49;99611.94;;;16.36;44.46
81865;BME280;71313;43.514;1.500;2023-12-07T11:51:16;99603.38;;;16.04;45.38
81865;BME280;71313;43.514;1.500;2023-12-07T11:53:44;99602.84;;;15.81;46.47
81865;BME280;71313;43.514;1.500;2023-12-07T11:56:10;99620.13;;;15.51;46.55
81865;BME280;71313;43.514;1.500;2023-12-07T11:58:39;99603.63;;;15.15;47.30
81865;BME280;71313;43.514;1.500;2023-12-07T12:01:05;99605.72;;;15.02;48.14
81865;BME280;71313;43.514;1.500;2023-12-07T12:03:31;99588.94;;;14.89;48.97
81865;BME280;71313;43.514;1.500;2023-12-07T12:05:59;99596.59;;;14.84;48.11
81865;BME280;71313;43.514;1.500;2023-12-07T12:08:25;99597.72;;;14.72;48.72
81865;BME280;71313;43.514;1.500;2023-12-07T12:10:51;99593.16;;;14.63;48.93
81865;BME280;71313;43.514;1.500;2023-12-07T12:13:29;99597.72;;;14.72;49.45
81865;BME280;71313;43.514;1.500;2023-12-07T12:15:56;99586.47;;;14.67;49.23
81865;BME280;71313;43.514;1.500;2023-12-07T12:18:21;99580.97;;;14.78;49.59
81865;BME280;71313;43.514;1.500;2023-12-07T12:20:50;99590.94;;;14.87;49.70
81865;BME280;71313;43.514;1.500;2023-12-07T12:23:16;99578.69;;;14.83;49.72
81865;BME280;71313;43.514;1.500;2023-12-07T12:25:41;99585.94;;;14.73;49.89
81865;BME280;71313;43.514;1.500;2023-12-07T12:28:07;99580.38;;;14.65;50.54
81865;BME280;71313;43.514;1.500;2023-12-07T12:30:33;99566.97;;;14.53;50.57
81865;BME280;71313;43.514;1.500;2023-12-07T12:32:59;99549.28;;;14.40;50.98
81865;BME280;71313;43.514;1.500;2023-12-07T12:35:28;99548.72;;;14.36;51.48
81865;BME280;71313;43.514;1.500;2023-12-07T12:37:54;99545.69;;;14.20;51.11
81865;BME280;71313;43.514;1.500;2023-12-07T12:40:21;99538.13;;;14.14;51.29
81865;BME280;71313;43.514;1.500;2023-12-07T12:42:48;99545.25;;;14.15;51.66
81865;BME280;71313;43.514;1.500;2023-12-07T12:45:15;99535.78;;;14.30;51.60
81865;BME280;71313;43.514;1.500;2023-12-07T12:47:41;99539.34;;;14.40;51.68
81865;BME280;71313;43.514;1.500;2023-12-07T12:50:12;99541.66;;;14.45;51.39
81865;BME280;71313;43.514;1.500;2023-12-07T12:52:42;99529.47;;;14.50;51.42
81865;BME280;71313;43.514;1.500;2023-12-07T12:55:09;99534.59;;;14.53;51.28
81865;BME280;71313;43.514;1.500;2023-12-07T12:57:36;99541.06;;;14.41;51.37
81865;BME280;71313;43.514;1.500;2023-12-07T13:00:01;99531.38;;;14.29;51.75
81865;BME280;71313;43.514;1.500;2023-12-07T13:02:27;99527.41;;;14.33;51.37
81865;BME280;71313;43.514;1.500;2023-12-07T13:04:52;99507.25;;;14.37;51.26
81865;BME280;71313;43.514;1.500;2023-12-07T13:07:19;99516.88;;;14.30;51.30
81865;BME280;71313;43.514;1.500;2023-12-07T13:09:44;99501.69;;;14.29;51.57
81865;BME280;71313;43.514;1.500;2023-12-07T13:12:10;99496.84;;;14.23;52.20